Terminal Aerodrome Forecast
Issued by NWS Green Bay, WI

Home | Current Version | Previous Version | Graphics & Text | Print | Product List | Glossary On
Versions: 1 2 3 4 5 6 7 8 9 10 11 12 13 14 15 16 17 18 19 20 21 22 23 24 25 26 27 28 29
000
FTUS43 KGRB 031721
TAFGRB
TAF
KGRB 031721Z 0318/0418 22008KT P6SM SCT050 BKN250
     FM040100 21004KT P6SM SCT040 BKN120
     FM040400 23004KT P6SM VCSH SCT040 BKN100
     FM040700 26003KT P6SM SCT040 SCT120
      TEMPO 0409/0413 4SM BR
     FM041300 05004KT P6SM SCT040=

USA.gov is the U.S. government's official web portal to all federal, state and local government web resources and services.